Rome, Georgia
Current Conditions -  °F | °C
As of 1:53 PM on Monday 20 Oct 2014 (Local Time) from KRMG Reporting Station
Clear Clear  
Wind Chill: 71°   Ceiling: Unl
Heat Index: 71°   Visibility: 10mi
Dew Point: 50°   Wind: 8mph
Humidity: 47%   Direction: 260°W
Pressure: 30.04"   Gusts: NA
Location:  34.25°N, 85.17°W
Report Text: KRMG 201753Z AUTO 26007KT 10SM CLR 22/10 A3004 RMK AO2 SLP168 T02170100 10217 20044 58026
Loading
Personal Weather Stations






























Interactive Weather Map New forecast layout! Learn more

10-Day Weather Forecast

Advertisements
Track Severe Weather on mobile